createdAt,value
2022-10-17T00:00:06.266Z,3.83
2022-10-17T00:02:33.155Z,3.37
2022-10-17T00:05:00.273Z,3.71
2022-10-17T00:07:27.565Z,3.90
2022-10-17T00:09:55.583Z,3.79
2022-10-17T00:12:23.177Z,3.59
2022-10-17T00:14:51.247Z,3.29
2022-10-17T00:17:18.966Z,3.81
2022-10-17T00:19:51.865Z,3.24
2022-10-17T00:22:19.008Z,3.81
2022-10-17T00:24:46.171Z,3.79
2022-10-17T00:27:13.640Z,3.76
2022-10-17T00:29:41.080Z,3.68
2022-10-17T00:32:08.271Z,3.54
2022-10-17T00:34:35.266Z,3.60
2022-10-17T00:37:02.910Z,3.73
2022-10-17T00:39:30.051Z,3.71
2022-10-17T00:41:57.133Z,3.69
2022-10-17T00:44:30.370Z,3.52
2022-10-17T00:47:05.370Z,3.63
2022-10-17T00:49:39.064Z,3.65
2022-10-17T00:52:16.009Z,3.03
2022-10-17T00:54:51.938Z,3.67
2022-10-17T00:57:20.910Z,3.23
2022-10-17T00:59:53.145Z,3.65
2022-10-17T01:02:22.296Z,3.57
2022-10-17T01:04:55.232Z,3.65
2022-10-17T01:07:23.343Z,3.05
2022-10-17T01:09:50.694Z,3.65
2022-10-17T01:12:23.219Z,3.65
2022-10-17T01:14:56.878Z,3.65
2022-10-17T01:17:40.167Z,3.62
2022-10-17T01:20:44.415Z,3.69
2022-10-17T01:23:29.640Z,3.67
2022-10-17T01:26:09.038Z,3.65
2022-10-17T01:29:10.210Z,3.62
2022-10-17T01:31:41.775Z,3.16
2022-10-17T01:34:42.116Z,3.57
2022-10-17T01:37:21.928Z,3.19
2022-10-17T01:40:07.075Z,3.50
2022-10-17T01:42:54.973Z,3.61
2022-10-17T01:45:40.959Z,3.58
2022-10-17T01:48:15.105Z,3.43
2022-10-17T01:51:07.793Z,3.57
2022-10-17T01:53:41.969Z,3.47
2022-10-17T01:56:13.356Z,3.61
2022-10-17T01:58:46.701Z,3.16
2022-10-17T02:01:14.247Z,3.61
2022-10-17T02:03:43.919Z,3.53
2022-10-17T02:06:11.688Z,3.30
2022-10-17T02:08:48.006Z,3.32
2022-10-17T02:11:19.383Z,3.71
2022-10-17T02:14:01.887Z,3.69
2022-10-17T02:16:32.479Z,3.71
2022-10-17T02:19:12.127Z,3.72
2022-10-17T02:21:50.851Z,3.70
2022-10-17T02:24:27.731Z,3.60
2022-10-17T02:26:56.175Z,3.72
2022-10-17T02:29:31.798Z,3.39
2022-10-17T02:32:07.162Z,3.27
2022-10-17T02:34:46.235Z,3.76
2022-10-17T02:37:18.682Z,3.50
2022-10-17T02:39:47.766Z,3.65
2022-10-17T02:42:16.360Z,3.73
2022-10-17T02:44:45.248Z,3.47
2022-10-17T02:47:27.186Z,3.73
2022-10-17T02:49:59.197Z,3.51
2022-10-17T02:52:37.870Z,3.22
2022-10-17T02:55:08.592Z,3.77
2022-10-17T02:57:42.952Z,3.72
2022-10-17T03:00:13.278Z,3.67
2022-10-17T03:02:41.622Z,3.78
2022-10-17T03:05:11.497Z,3.30
2022-10-17T03:07:39.291Z,3.54
2022-10-17T03:10:07.594Z,3.69
2022-10-17T03:12:34.748Z,3.68
2022-10-17T03:15:02.451Z,3.41
2022-10-17T03:17:31.519Z,3.61
2022-10-17T03:19:59.117Z,3.21
2022-10-17T03:22:26.213Z,3.53
2022-10-17T03:24:53.375Z,3.81
2022-10-17T03:27:20.987Z,3.54
2022-10-17T03:29:48.248Z,3.61
2022-10-17T03:32:17.996Z,3.78
2022-10-17T03:34:46.031Z,3.56
2022-10-17T03:37:13.321Z,3.70
2022-10-17T03:39:41.815Z,3.37
2022-10-17T03:42:09.398Z,3.51
2022-10-17T03:44:36.822Z,3.33
2022-10-17T03:47:04.863Z,2.86
2022-10-17T03:49:32.371Z,3.34
2022-10-17T03:51:59.505Z,3.04
2022-10-17T03:54:28.224Z,3.43
2022-10-17T03:59:28.045Z,3.64
2022-10-17T04:02:02.898Z,2.80
2022-10-17T04:04:30.039Z,3.61
2022-10-17T04:06:57.985Z,3.55
2022-10-17T04:09:25.912Z,3.73
2022-10-17T04:12:01.416Z,3.77
2022-10-17T04:14:30.179Z,3.78
2022-10-17T04:16:58.551Z,3.77
2022-10-17T04:19:27.192Z,3.45
2022-10-17T04:21:54.828Z,3.78
2022-10-17T04:24:22.959Z,3.66
2022-10-17T04:26:56.713Z,3.36
2022-10-17T04:29:27.658Z,3.81
2022-10-17T04:32:04.351Z,3.82
2022-10-17T04:34:40.668Z,3.77
2022-10-17T04:37:08.011Z,3.83
2022-10-17T04:39:36.204Z,3.84
2022-10-17T04:42:03.674Z,4.07
2022-10-17T04:44:31.817Z,3.56
2022-10-17T04:46:59.282Z,3.70
2022-10-17T04:49:27.428Z,3.77
2022-10-17T04:51:59.681Z,3.82
2022-10-17T04:54:38.157Z,4.03
2022-10-17T04:57:09.658Z,4.25
2022-10-17T04:59:37.192Z,4.12
2022-10-17T05:02:24.722Z,4.11
2022-10-17T05:04:52.175Z,4.34
2022-10-17T05:07:21.715Z,4.24
2022-10-17T05:10:18.013Z,4.39
2022-10-17T05:12:49.853Z,4.40
2022-10-17T05:15:19.193Z,4.09
2022-10-17T05:17:46.539Z,4.32
2022-10-17T05:20:14.041Z,3.92
2022-10-17T05:22:42.401Z,4.55
2022-10-17T05:25:11.555Z,4.53
2022-10-17T05:27:39.525Z,4.60
2022-10-17T05:30:07.466Z,4.65
2022-10-17T05:32:36.691Z,4.22
2022-10-17T05:35:05.052Z,4.62
2022-10-17T05:37:33.058Z,4.76
2022-10-17T05:40:02.242Z,4.29
2022-10-17T05:42:31.375Z,4.18
2022-10-17T05:44:58.771Z,4.85
2022-10-17T05:47:27.154Z,4.54
2022-10-17T05:49:54.557Z,4.67
2022-10-17T05:52:28.304Z,4.88
2022-10-17T05:55:12.759Z,4.66
2022-10-17T05:57:40.630Z,4.79
2022-10-17T06:00:13.446Z,4.75
2022-10-17T06:02:48.247Z,4.46
2022-10-17T06:05:17.140Z,5.02
2022-10-17T06:07:44.873Z,5.10
2022-10-17T06:10:15.214Z,4.77
2022-10-17T06:12:44.068Z,5.30
2022-10-17T06:15:12.066Z,4.80
2022-10-17T06:17:41.570Z,5.44
2022-10-17T06:20:09.917Z,5.47
2022-10-17T06:22:36.968Z,4.97
2022-10-17T06:25:08.621Z,5.14
2022-10-17T06:27:35.809Z,5.38
2022-10-17T06:30:04.251Z,5.54
2022-10-17T06:32:32.283Z,5.67
2022-10-17T06:35:00.306Z,5.19
2022-10-17T06:37:35.593Z,5.68
2022-10-17T06:40:09.177Z,5.60
2022-10-17T06:42:39.256Z,5.08
2022-10-17T06:45:24.825Z,4.78
2022-10-17T06:48:12.182Z,5.29
2022-10-17T06:51:11.994Z,4.83
2022-10-17T06:53:49.775Z,5.43
2022-10-17T06:56:49.888Z,5.32
2022-10-17T06:59:26.296Z,5.56
2022-10-17T07:02:02.372Z,5.64
2022-10-17T07:04:30.842Z,5.72
2022-10-17T07:09:27.988Z,5.71
2022-10-17T07:11:57.890Z,5.65
2022-10-17T07:14:32.114Z,5.46
2022-10-17T07:17:00.456Z,6.13
2022-10-17T07:19:29.906Z,5.45
2022-10-17T07:21:57.311Z,5.84
2022-10-17T07:24:25.789Z,6.30
2022-10-17T07:26:58.794Z,6.03
2022-10-17T07:29:26.267Z,6.42
2022-10-17T07:32:09.076Z,6.24
2022-10-17T07:34:36.953Z,6.03
2022-10-17T07:37:07.121Z,6.51
2022-10-17T07:39:35.778Z,6.31
2022-10-17T07:42:05.335Z,6.44
2022-10-17T07:44:32.450Z,6.47
2022-10-17T07:47:01.270Z,6.32
2022-10-17T07:49:29.546Z,6.37
2022-10-17T07:51:56.816Z,6.40
2022-10-17T07:54:24.059Z,6.10
2022-10-17T07:56:51.157Z,6.36
2022-10-17T07:59:19.584Z,6.49
2022-10-17T08:01:47.194Z,6.56
2022-10-17T08:04:14.501Z,6.20
2022-10-17T08:06:41.794Z,6.41
2022-10-17T08:09:09.284Z,6.52
2022-10-17T08:11:37.329Z,6.42
2022-10-17T08:14:04.382Z,6.13
2022-10-17T08:16:31.585Z,6.38
2022-10-17T08:18:59.139Z,6.45
2022-10-17T08:21:26.320Z,6.14
2022-10-17T08:23:53.901Z,6.27
2022-10-17T08:26:20.986Z,6.30
2022-10-17T08:28:49.719Z,6.65
2022-10-17T08:31:19.300Z,6.14
2022-10-17T08:33:48.272Z,6.13
2022-10-17T08:36:18.945Z,6.24
2022-10-17T08:38:51.788Z,6.90
2022-10-17T08:41:25.953Z,6.99
2022-10-17T08:44:18.818Z,7.11
2022-10-17T08:46:50.004Z,6.60
2022-10-17T08:49:37.617Z,6.83
2022-10-17T08:52:17.243Z,6.65
2022-10-17T08:54:47.850Z,7.04
2022-10-17T08:57:30.994Z,6.61
2022-10-17T08:59:59.156Z,6.24
2022-10-17T09:02:48.622Z,6.65
2022-10-17T09:05:38.215Z,6.53
2022-10-17T09:08:30.006Z,6.58
2022-10-17T09:11:03.717Z,6.43
2022-10-17T09:13:48.777Z,6.56
2022-10-17T09:16:30.421Z,6.51
2022-10-17T09:19:08.987Z,6.41
2022-10-17T09:21:52.353Z,6.07
2022-10-17T09:24:27.939Z,5.09
2022-10-17T09:26:56.001Z,4.86
2022-10-17T09:29:28.636Z,5.31
2022-10-17T09:32:04.920Z,5.22
2022-10-17T09:34:33.049Z,5.09
2022-10-17T09:37:02.591Z,4.68
2022-10-17T09:39:33.254Z,3.98
2022-10-17T09:42:02.724Z,4.69
2022-10-17T09:44:31.303Z,4.67
2022-10-17T09:47:07.237Z,4.67
2022-10-17T09:49:38.172Z,4.63
2022-10-17T09:52:12.525Z,4.46
2022-10-17T09:54:44.559Z,4.48
2022-10-17T09:57:13.301Z,4.51
2022-10-17T09:59:46.992Z,4.55
2022-10-17T10:05:41.501Z,4.63
2022-10-17T10:08:17.687Z,4.61
2022-10-17T10:11:00.608Z,4.08
2022-10-17T10:13:29.168Z,4.70
2022-10-17T10:16:30.348Z,4.81
2022-10-17T10:18:58.547Z,4.87
2022-10-17T10:21:27.678Z,4.93
2022-10-17T10:24:09.874Z,5.01
2022-10-17T10:26:49.098Z,5.09
2022-10-17T10:29:21.533Z,5.04
2022-10-17T10:31:50.004Z,4.96
2022-10-17T10:34:22.594Z,4.86
2022-10-17T10:36:55.421Z,5.24
2022-10-17T10:39:32.384Z,5.33
2022-10-17T10:42:02.132Z,5.33
2022-10-17T10:44:32.282Z,5.17
2022-10-17T10:47:18.380Z,5.34
2022-10-17T10:49:45.932Z,5.20
2022-10-17T10:52:37.025Z,5.48
2022-10-17T10:55:16.441Z,5.52
2022-10-17T10:57:47.460Z,5.41
2022-10-17T11:00:17.476Z,5.52
2022-10-17T11:03:12.774Z,5.55
2022-10-17T11:05:51.338Z,5.44
2022-10-17T11:09:11.066Z,5.57
2022-10-17T11:11:48.049Z,5.45
2022-10-17T11:14:49.518Z,5.57
2022-10-17T11:17:37.072Z,5.58
2022-10-17T11:20:12.944Z,5.57
2022-10-17T11:22:48.929Z,5.58
2022-10-17T11:25:37.266Z,5.58
2022-10-17T11:28:14.987Z,5.42
2022-10-17T11:30:47.424Z,5.62
2022-10-17T11:33:30.724Z,5.48
2022-10-17T11:36:05.233Z,5.56
2022-10-17T11:39:01.962Z,5.65
2022-10-17T11:41:39.320Z,5.64
2022-10-17T11:44:22.843Z,5.61
2022-10-17T11:46:57.515Z,5.51
2022-10-17T11:49:34.209Z,5.48
2022-10-17T11:52:22.801Z,5.74
2022-10-17T11:55:10.972Z,5.59
2022-10-17T11:57:49.283Z,5.75
2022-10-17T12:00:40.717Z,5.74
2022-10-17T12:03:33.777Z,5.77
2022-10-17T12:06:04.895Z,5.78
2022-10-17T12:09:01.892Z,5.78
2022-10-17T12:11:45.895Z,5.73
2022-10-17T12:14:39.454Z,5.79
2022-10-17T12:17:21.219Z,5.35
2022-10-17T12:19:48.864Z,5.74
2022-10-17T12:22:21.371Z,5.81
2022-10-17T12:25:03.324Z,5.83
2022-10-17T12:27:43.845Z,5.77
2022-10-17T12:30:26.216Z,5.77
2022-10-17T12:33:07.392Z,5.81
2022-10-17T12:35:37.589Z,5.84
2022-10-17T12:38:27.560Z,5.87
2022-10-17T12:40:56.996Z,5.88
2022-10-17T12:43:30.075Z,5.88
2022-10-17T12:46:05.372Z,5.88
2022-10-17T12:48:38.524Z,5.86
2022-10-17T12:54:07.217Z,5.92
2022-10-17T12:56:45.599Z,5.95
2022-10-17T12:59:21.765Z,5.78
2022-10-17T13:01:54.138Z,5.60
2022-10-17T13:04:22.175Z,5.42
2022-10-17T13:06:54.893Z,5.55
2022-10-17T13:09:28.085Z,5.95
2022-10-17T13:12:03.246Z,5.04
2022-10-17T13:14:35.563Z,5.26
2022-10-17T13:17:05.518Z,5.34
2022-10-17T13:19:43.334Z,5.99
2022-10-17T13:22:15.085Z,5.97
2022-10-17T13:24:42.430Z,5.83
2022-10-17T13:27:26.826Z,6.02
2022-10-17T13:29:56.462Z,5.55
2022-10-17T13:32:25.841Z,5.80
2022-10-17T13:35:13.353Z,5.70
2022-10-17T13:37:42.925Z,5.41
2022-10-17T13:43:20.015Z,5.70
2022-10-17T13:45:52.501Z,6.17
2022-10-17T13:48:28.714Z,6.19
2022-10-17T13:51:02.422Z,5.56
2022-10-17T13:53:34.621Z,6.25
2022-10-17T13:56:26.931Z,6.25
2022-10-17T13:58:57.544Z,6.26
2022-10-17T14:01:28.666Z,6.16
2022-10-17T14:04:07.651Z,5.97
2022-10-17T14:06:40.990Z,5.66
2022-10-17T14:09:28.408Z,5.88
2022-10-17T14:12:08.789Z,6.25
2022-10-17T14:14:58.054Z,6.11
2022-10-17T14:17:27.346Z,6.37
2022-10-17T14:20:34.119Z,6.16
2022-10-17T14:22:54.551Z,6.34
2022-10-17T14:25:38.116Z,6.31
2022-10-17T14:28:15.274Z,6.37
2022-10-17T14:30:57.122Z,5.91
2022-10-17T14:33:29.659Z,6.37
2022-10-17T14:35:59.136Z,6.38
2022-10-17T14:38:27.561Z,6.28
2022-10-17T14:41:37.425Z,6.12
2022-10-17T14:43:58.687Z,6.00
2022-10-17T14:46:26.330Z,6.39
2022-10-17T14:49:04.714Z,6.07
2022-10-17T14:51:44.675Z,6.29
2022-10-17T14:54:27.131Z,5.81
2022-10-17T14:56:55.062Z,5.87
2022-10-17T14:59:52.259Z,6.07
2022-10-17T15:02:14.260Z,6.06
2022-10-17T15:04:41.906Z,5.97
2022-10-17T15:07:17.339Z,5.33
2022-10-17T15:09:47.467Z,6.19
2022-10-17T15:12:19.895Z,6.13
2022-10-17T15:14:48.834Z,6.05
2022-10-17T15:17:23.672Z,6.16
2022-10-17T15:19:50.985Z,6.17
2022-10-17T15:22:18.623Z,5.79
2022-10-17T15:24:46.818Z,6.18
2022-10-17T15:27:22.276Z,5.76
2022-10-17T15:29:50.659Z,6.36
2022-10-17T15:32:18.010Z,6.38
2022-10-17T15:34:45.401Z,6.21
2022-10-17T15:37:22.202Z,5.94
2022-10-17T15:39:54.801Z,6.40
2022-10-17T15:42:30.264Z,6.36
2022-10-17T15:44:58.470Z,6.10
2022-10-17T15:47:33.868Z,6.49
2022-10-17T15:50:40.624Z,6.00
2022-10-17T15:53:35.581Z,6.53
2022-10-17T15:56:03.856Z,5.95
2022-10-17T15:58:36.324Z,5.90
2022-10-17T16:01:05.561Z,5.65
2022-10-17T16:03:34.224Z,6.34
2022-10-17T16:06:01.563Z,6.50
2022-10-17T16:08:29.940Z,6.65
2022-10-17T16:10:57.540Z,6.65
2022-10-17T16:13:25.203Z,6.09
2022-10-17T16:15:52.809Z,6.63
2022-10-17T16:18:21.330Z,6.51
2022-10-17T16:20:48.655Z,6.14
2022-10-17T16:23:15.736Z,6.57
2022-10-17T16:25:43.133Z,6.62
2022-10-17T16:28:12.010Z,6.33
2022-10-17T16:30:45.045Z,6.55
2022-10-17T16:33:12.818Z,6.45
2022-10-17T16:35:39.925Z,6.83
2022-10-17T16:38:08.263Z,6.35
2022-10-17T16:40:38.782Z,6.16
2022-10-17T16:43:06.135Z,6.64
2022-10-17T16:45:33.397Z,6.89
2022-10-17T16:48:00.709Z,6.63
2022-10-17T16:50:28.293Z,6.64
2022-10-17T16:52:55.883Z,6.60
2022-10-17T16:55:23.917Z,6.89
2022-10-17T16:57:51.005Z,7.04
2022-10-17T17:00:19.065Z,6.49
2022-10-17T17:02:49.260Z,6.95
2022-10-17T17:05:16.524Z,6.96
2022-10-17T17:07:43.587Z,6.91
2022-10-17T17:10:11.379Z,6.75
2022-10-17T17:12:39.647Z,6.97
2022-10-17T17:15:07.019Z,6.97
2022-10-17T17:17:49.742Z,7.13
2022-10-17T17:20:19.695Z,7.13
2022-10-17T17:22:48.749Z,7.01
2022-10-17T17:25:16.873Z,7.18
2022-10-17T17:27:44.620Z,7.18
2022-10-17T17:30:12.371Z,7.01
2022-10-17T17:32:40.096Z,7.04
2022-10-17T17:35:07.605Z,7.25
2022-10-17T17:37:35.045Z,7.28
2022-10-17T17:40:02.153Z,7.14
2022-10-17T17:42:30.338Z,7.21
2022-10-17T17:44:57.509Z,7.20
2022-10-17T17:47:24.541Z,7.23
2022-10-17T17:49:51.574Z,7.30
2022-10-17T17:52:18.632Z,7.38
2022-10-17T17:54:45.759Z,7.22
2022-10-17T17:57:12.930Z,7.39
2022-10-17T17:59:41.331Z,7.37
2022-10-17T18:02:11.221Z,7.42
2022-10-17T18:04:39.382Z,7.44
2022-10-17T18:07:06.790Z,7.27
2022-10-17T18:09:34.964Z,7.44
2022-10-17T18:12:11.219Z,7.41
2022-10-17T18:14:40.083Z,7.48
2022-10-17T18:17:07.337Z,7.47
2022-10-17T18:19:36.687Z,7.42
2022-10-17T18:22:04.088Z,7.43
2022-10-17T18:24:31.368Z,7.47
2022-10-17T18:26:59.976Z,7.52
2022-10-17T18:29:29.639Z,7.55
2022-10-17T18:31:57.804Z,7.53
2022-10-17T18:34:35.042Z,7.57
2022-10-17T18:37:03.693Z,7.27
2022-10-17T18:39:31.030Z,7.60
2022-10-17T18:41:58.681Z,7.44
2022-10-17T18:44:26.175Z,7.49
2022-10-17T18:46:58.598Z,7.49
2022-10-17T18:49:30.112Z,7.44
2022-10-17T18:51:59.673Z,7.34
2022-10-17T18:54:26.913Z,7.47
2022-10-17T18:56:56.840Z,7.43
2022-10-17T18:59:25.707Z,7.41
2022-10-17T19:01:52.871Z,7.24
2022-10-17T19:04:20.532Z,7.39
2022-10-17T19:06:49.828Z,7.42
2022-10-17T19:09:18.087Z,7.44
2022-10-17T19:11:45.554Z,7.42
2022-10-17T19:14:14.285Z,7.53
2022-10-17T19:16:49.056Z,7.54
2022-10-17T19:19:21.841Z,7.56
2022-10-17T19:21:53.705Z,7.56
2022-10-17T19:24:24.565Z,7.55
2022-10-17T19:26:54.205Z,7.43
2022-10-17T19:29:25.127Z,7.55
2022-10-17T19:31:53.530Z,7.36
2022-10-17T19:34:21.789Z,7.40
2022-10-17T19:36:49.478Z,7.53
2022-10-17T19:39:23.425Z,7.30
2022-10-17T19:41:50.819Z,7.19
2022-10-17T19:44:18.524Z,7.50
2022-10-17T19:46:47.245Z,7.43
2022-10-17T19:49:15.447Z,7.31
2022-10-17T19:51:42.615Z,7.48
2022-10-17T19:54:10.284Z,7.45
2022-10-17T19:56:38.467Z,7.42
2022-10-17T19:59:06.874Z,7.27
2022-10-17T20:01:39.673Z,7.54
2022-10-17T20:04:11.002Z,7.45
2022-10-17T20:06:39.058Z,7.57
2022-10-17T20:09:09.826Z,7.45
2022-10-17T20:11:39.780Z,7.47
2022-10-17T20:14:07.006Z,7.48
2022-10-17T20:16:36.000Z,7.45
2022-10-17T20:19:10.784Z,7.39
2022-10-17T20:21:39.740Z,7.31
2022-10-17T20:24:11.371Z,7.11
2022-10-17T20:26:39.451Z,7.23
2022-10-17T20:29:21.969Z,7.09
2022-10-17T20:31:49.245Z,7.05
2022-10-17T20:34:18.630Z,7.00
2022-10-17T20:36:46.429Z,7.15
2022-10-17T20:39:15.773Z,7.15
2022-10-17T20:41:43.241Z,6.95
2022-10-17T20:44:11.495Z,7.11
2022-10-17T20:46:52.694Z,7.08
2022-10-17T20:49:26.794Z,7.03
2022-10-17T20:51:53.724Z,6.94
2022-10-17T20:54:22.024Z,6.89
2022-10-17T20:56:49.077Z,7.00
2022-10-17T20:59:18.028Z,7.12
2022-10-17T21:01:46.272Z,7.16
2022-10-17T21:07:01.390Z,7.03
2022-10-17T21:09:28.581Z,7.13
2022-10-17T21:11:56.999Z,6.95
2022-10-17T21:14:25.467Z,7.05
2022-10-17T21:16:52.881Z,7.07
2022-10-17T21:19:21.735Z,7.03
2022-10-17T21:21:49.053Z,6.92
2022-10-17T21:24:18.166Z,6.94
2022-10-17T21:26:46.634Z,6.86
2022-10-17T21:29:14.245Z,6.81
2022-10-17T21:31:43.675Z,7.02
2022-10-17T21:34:17.715Z,7.03
2022-10-17T21:36:45.364Z,7.03
2022-10-17T21:39:14.360Z,6.95
2022-10-17T21:41:42.449Z,6.97
2022-10-17T21:44:15.569Z,7.00
2022-10-17T21:46:43.329Z,6.97
2022-10-17T21:49:15.637Z,6.93
2022-10-17T21:51:44.740Z,6.95
2022-10-17T21:54:12.152Z,6.96
2022-10-17T21:56:39.732Z,6.88
2022-10-17T21:59:07.113Z,6.92
2022-10-17T22:01:36.668Z,6.92
2022-10-17T22:04:06.245Z,6.86
2022-10-17T22:06:40.537Z,6.90
2022-10-17T22:09:18.918Z,6.97
2022-10-17T22:11:48.625Z,6.98
2022-10-17T22:14:19.002Z,6.97
2022-10-17T22:16:46.882Z,7.05
2022-10-17T22:19:16.988Z,7.01
2022-10-17T22:21:43.952Z,6.98
2022-10-17T22:24:14.727Z,6.96
2022-10-17T22:26:42.541Z,6.89
2022-10-17T22:29:09.622Z,6.94
2022-10-17T22:31:38.365Z,6.83
2022-10-17T22:34:07.392Z,6.92
2022-10-17T22:36:35.584Z,6.88
2022-10-17T22:39:03.666Z,6.84
2022-10-17T22:41:30.738Z,6.57
2022-10-17T22:43:58.062Z,6.74
2022-10-17T22:46:25.888Z,6.53
2022-10-17T22:48:52.922Z,6.73
2022-10-17T22:51:20.155Z,6.68
2022-10-17T22:53:47.656Z,6.64
2022-10-17T22:56:18.902Z,6.68
2022-10-17T22:58:46.361Z,6.71
2022-10-17T23:01:16.711Z,6.60
2022-10-17T23:03:44.174Z,6.59
2022-10-17T23:06:11.800Z,6.70
2022-10-17T23:08:39.690Z,6.75
2022-10-17T23:11:08.112Z,6.67
2022-10-17T23:13:35.710Z,6.69
2022-10-17T23:16:03.824Z,6.63
2022-10-17T23:21:02.841Z,6.62
2022-10-17T23:23:29.946Z,6.59
2022-10-17T23:26:10.876Z,6.45
2022-10-17T23:28:38.599Z,6.39
2022-10-17T23:31:13.981Z,6.52
2022-10-17T23:33:41.810Z,6.51
2022-10-17T23:36:11.148Z,6.49
2022-10-17T23:38:39.383Z,6.38
2022-10-17T23:41:06.748Z,6.44
2022-10-17T23:43:34.552Z,6.32
2022-10-17T23:46:02.426Z,6.28
2022-10-17T23:48:29.769Z,6.44
2022-10-17T23:50:57.250Z,6.41
2022-10-17T23:53:24.927Z,6.26
2022-10-17T23:55:52.013Z,6.07
2022-10-17T23:58:18.921Z,6.34
